createdAt,value
2017-05-01T00:00:10.037Z,19.16
2017-05-01T00:01:20.329Z,19.2
2017-05-01T00:02:30.871Z,19.16
2017-05-01T00:03:40.855Z,19.2
2017-05-01T00:04:51.162Z,19.19
2017-05-01T00:06:01.456Z,19.2
2017-05-01T00:07:11.737Z,19.16
2017-05-01T00:08:21.957Z,19.17
2017-05-01T00:09:32.243Z,19.16
2017-05-01T00:10:42.247Z,19.11
2017-05-01T00:11:51.905Z,19.11
2017-05-01T00:13:02.195Z,19.16
2017-05-01T00:14:12.425Z,19.19
2017-05-01T00:15:22.717Z,19.19
2017-05-01T00:16:32.722Z,19.16
2017-05-01T00:17:42.391Z,19.16
2017-05-01T00:18:52.059Z,19.11
2017-05-01T00:20:02.276Z,19.07
2017-05-01T00:21:11.931Z,19.07
2017-05-01T00:22:21.910Z,19.15
2017-05-01T00:23:31.897Z,19.07
2017-05-01T00:24:42.192Z,19.11
2017-05-01T00:25:52.717Z,19.16
2017-05-01T00:27:02.703Z,19.08
2017-05-01T00:28:12.994Z,19.16
2017-05-01T00:29:23.285Z,19.08
2017-05-01T00:30:33.256Z,19.09
2017-05-01T00:31:43.797Z,19.12
2017-05-01T00:32:53.808Z,19.11
2017-05-01T00:34:04.098Z,19.05
2017-05-01T00:35:14.376Z,19.05
2017-05-01T00:36:24.666Z,19.05
2017-05-01T00:37:34.883Z,19.08
2017-05-01T00:38:44.854Z,19.07
2017-05-01T00:39:55.144Z,19.08
2017-05-01T00:41:05.429Z,19.05
2017-05-01T00:42:15.406Z,19.07
2017-05-01T00:43:26.167Z,19.07
2017-05-01T00:44:36.461Z,19.16
2017-05-01T00:45:46.438Z,19.01
2017-05-01T00:46:56.413Z,19.12
2017-05-01T00:48:06.714Z,19.07
2017-05-01T00:49:17.250Z,19.11
2017-05-01T00:50:27.532Z,19.05
2017-05-01T00:51:37.500Z,19.07
2017-05-01T00:52:47.778Z,19.05
2017-05-01T00:53:57.444Z,19.11
2017-05-01T00:55:08.030Z,19.05
2017-05-01T00:56:18.319Z,19.09
2017-05-01T00:57:28.586Z,19.09
2017-05-01T00:58:38.565Z,19.07
2017-05-01T00:59:48.871Z,19.11
2017-05-01T01:00:59.091Z,19.08
2017-05-01T01:02:09.393Z,19.09
2017-05-01T01:03:19.693Z,19.08
2017-05-01T01:04:29.672Z,19.11
2017-05-01T01:05:39.952Z,19.07
2017-05-01T01:06:49.860Z,19.09
2017-05-01T01:08:00.149Z,19.01
2017-05-01T01:09:09.810Z,19.07
2017-05-01T01:10:20.100Z,19.04
2017-05-01T01:11:30.391Z,19.04
2017-05-01T01:12:40.923Z,19.11
2017-05-01T01:13:50.891Z,19.04
2017-05-01T01:15:00.867Z,19.12
2017-05-01T01:16:11.156Z,19.08
2017-05-01T01:17:21.140Z,19.08
2017-05-01T01:18:31.045Z,19.07
2017-05-01T01:19:41.335Z,19.07
2017-05-01T01:20:51.305Z,19.12
2017-05-01T01:22:01.608Z,19.04
2017-05-01T01:23:11.592Z,19.09
2017-05-01T01:24:21.816Z,19.11
2017-05-01T01:25:31.481Z,19.04
2017-05-01T01:26:41.774Z,19.11
2017-05-01T01:27:51.752Z,19.05
2017-05-01T01:29:02.036Z,19.04
2017-05-01T01:30:12.299Z,19.08
2017-05-01T01:31:22.593Z,19.05
2017-05-01T01:32:32.561Z,19.05
2017-05-01T01:33:42.861Z,19.04
2017-05-01T01:34:53.168Z,19.08
2017-05-01T01:36:03.706Z,19.08
2017-05-01T01:37:13.676Z,19.11
2017-05-01T01:38:23.643Z,19.07
2017-05-01T01:39:33.933Z,19.08
2017-05-01T01:40:43.898Z,18.98
2017-05-01T01:41:54.441Z,19.05
2017-05-01T01:43:04.721Z,19
2017-05-01T01:44:14.999Z,19.04
2017-05-01T01:45:24.664Z,19.07
2017-05-01T01:46:34.943Z,19.04
2017-05-01T01:47:45.166Z,19.07
2017-05-01T01:48:55.459Z,19.12
2017-05-01T01:50:05.421Z,19.05
2017-05-01T01:51:15.699Z,19.05
2017-05-01T01:52:25.681Z,18.97
2017-05-01T01:53:36.217Z,18.97
2017-05-01T01:54:46.209Z,19.04
2017-05-01T01:55:56.484Z,19.01
2017-05-01T01:57:06.776Z,19.05
2017-05-01T01:58:16.756Z,18.98
2017-05-01T01:59:27.299Z,18.98
2017-05-01T02:00:37.271Z,19.05
2017-05-01T02:01:47.551Z,18.97
2017-05-01T02:02:57.845Z,18.92
2017-05-01T02:04:08.130Z,18.97
2017-05-01T02:05:18.350Z,19
2017-05-01T02:06:28.625Z,19.01
2017-05-01T02:07:38.606Z,18.98
2017-05-01T02:08:48.926Z,18.97
2017-05-01T02:09:59.217Z,19.04
2017-05-01T02:11:09.748Z,18.98
2017-05-01T02:12:19.718Z,18.98
2017-05-01T02:13:30.000Z,19.04
2017-05-01T02:14:39.978Z,19.01
2017-05-01T02:15:50.267Z,19.08
2017-05-01T02:17:00.540Z,19.04
2017-05-01T02:18:10.519Z,19.01
2017-05-01T02:19:20.804Z,19
2017-05-01T02:20:31.082Z,18.96
2017-05-01T02:21:40.743Z,19.01
2017-05-01T02:22:51.286Z,18.98
2017-05-01T02:24:01.582Z,18.96
2017-05-01T02:25:11.551Z,18.96
2017-05-01T02:26:21.561Z,18.98
2017-05-01T02:27:31.534Z,18.97
2017-05-01T02:28:41.766Z,18.94
2017-05-01T02:29:52.109Z,18.94
2017-05-01T02:31:02.389Z,18.97
2017-05-01T02:32:12.369Z,18.96
2017-05-01T02:33:22.661Z,18.94
2017-05-01T02:34:32.884Z,18.86
2017-05-01T02:35:42.853Z,18.92
2017-05-01T02:36:52.505Z,18.91
2017-05-01T02:38:01.852Z,18.91
2017-05-01T02:39:11.826Z,18.92
2017-05-01T02:40:22.350Z,18.94
2017-05-01T02:41:32.638Z,18.96
2017-05-01T02:42:42.303Z,18.96
2017-05-01T02:43:52.275Z,18.92
2017-05-01T02:45:02.558Z,19
2017-05-01T02:46:13.099Z,18.98
2017-05-01T02:47:23.073Z,18.92
2017-05-01T02:48:33.043Z,18.94
2017-05-01T02:49:43.328Z,19
2017-05-01T02:50:52.987Z,18.94
2017-05-01T02:52:03.526Z,18.89
2017-05-01T02:53:13.497Z,18.92
2017-05-01T02:54:23.792Z,18.91
2017-05-01T02:55:34.063Z,18.94
2017-05-01T02:56:44.051Z,18.94
2017-05-01T02:57:54.584Z,18.91
2017-05-01T02:59:04.882Z,18.92
2017-05-01T03:00:15.165Z,18.92
2017-05-01T03:01:25.444Z,18.97
2017-05-01T03:02:35.108Z,18.92
2017-05-01T03:03:45.377Z,18.92
2017-05-01T03:04:55.339Z,18.92
2017-05-01T03:06:05.311Z,18.88
2017-05-01T03:07:14.992Z,18.96
2017-05-01T03:08:25.274Z,18.92
2017-05-01T03:09:35.805Z,18.92
2017-05-01T03:10:46.089Z,18.92
2017-05-01T03:11:56.376Z,18.91
2017-05-01T03:13:06.040Z,19.05
2017-05-01T03:14:16.020Z,18.88
2017-05-01T03:15:26.544Z,18.98
2017-05-01T03:16:36.818Z,19
2017-05-01T03:17:47.113Z,18.98
2017-05-01T03:18:57.086Z,19
2017-05-01T03:20:07.056Z,18.85
2017-05-01T03:21:17.658Z,18.85
2017-05-01T03:22:27.637Z,18.96
2017-05-01T03:23:37.297Z,19.04
2017-05-01T03:24:47.579Z,19
2017-05-01T03:25:57.550Z,19.07
2017-05-01T03:27:07.772Z,18.96
2017-05-01T03:28:17.737Z,18.97
2017-05-01T03:29:28.032Z,18.85
2017-05-01T03:30:38.003Z,18.97
2017-05-01T03:31:48.283Z,18.91
2017-05-01T03:32:58.821Z,18.88
2017-05-01T03:34:09.112Z,18.89
2017-05-01T03:35:19.410Z,18.92
2017-05-01T03:36:29.686Z,18.94
2017-05-01T03:37:39.674Z,18.88
2017-05-01T03:38:49.927Z,18.96
2017-05-01T03:40:00.210Z,18.88
2017-05-01T03:41:10.490Z,18.82
2017-05-01T03:42:20.454Z,18.88
2017-05-01T03:43:30.746Z,18.92
2017-05-01T03:44:40.967Z,18.85
2017-05-01T03:45:51.254Z,18.92
2017-05-01T03:47:01.255Z,18.91
2017-05-01T03:48:11.532Z,18.94
2017-05-01T03:49:21.507Z,18.91
2017-05-01T03:50:32.033Z,18.83
2017-05-01T03:51:42.011Z,18.89
2017-05-01T03:52:52.299Z,18.88
2017-05-01T03:54:01.969Z,18.88
2017-05-01T03:55:12.252Z,18.83
2017-05-01T03:56:22.793Z,18.89
2017-05-01T03:57:32.174Z,18.94
2017-05-01T03:58:42.499Z,18.97
2017-05-01T03:59:52.788Z,18.94
2017-05-01T04:01:02.768Z,18.85
2017-05-01T04:02:13.301Z,18.94
2017-05-01T04:03:23.583Z,18.94
2017-05-01T04:04:33.253Z,18.92
2017-05-01T04:05:43.234Z,18.98
2017-05-01T04:06:53.234Z,18.97
2017-05-01T04:08:03.765Z,19.07
2017-05-01T04:09:13.733Z,19.01
2017-05-01T04:10:24.010Z,19.11
2017-05-01T04:11:33.974Z,19.07
2017-05-01T04:12:43.943Z,18.96
2017-05-01T04:13:54.164Z,19.04
2017-05-01T04:15:04.449Z,19.01
2017-05-01T04:16:14.727Z,19.07
2017-05-01T04:17:25.019Z,19.07
2017-05-01T04:18:35.318Z,19.04
2017-05-01T04:19:45.884Z,19.05
2017-05-01T04:20:55.848Z,19.07
2017-05-01T04:22:05.823Z,19.04
2017-05-01T04:23:15.172Z,19.05
2017-05-01T04:24:25.454Z,19.08
2017-05-01T04:25:35.996Z,19.05
2017-05-01T04:26:45.657Z,19.04
2017-05-01T04:27:55.956Z,19.05
2017-05-01T04:29:06.238Z,19.07
2017-05-01T04:30:16.515Z,19.05
2017-05-01T04:31:26.736Z,19.04
2017-05-01T04:32:37.029Z,19.09
2017-05-01T04:33:47.015Z,19.08
2017-05-01T04:34:57.296Z,19.09
2017-05-01T04:36:07.571Z,19.2
2017-05-01T04:37:18.102Z,19.09
2017-05-01T04:38:28.391Z,19.09
2017-05-01T04:39:38.681Z,19.17
2017-05-01T04:40:48.962Z,19.17
2017-05-01T04:41:58.619Z,19.11
2017-05-01T04:43:09.152Z,19.22
2017-05-01T04:44:19.439Z,19.16
2017-05-01T04:45:29.729Z,19.17
2017-05-01T04:46:39.703Z,19.19
2017-05-01T04:47:49.981Z,19.19
2017-05-01T04:49:00.513Z,19.16
2017-05-01T04:50:10.479Z,19.17
2017-05-01T04:51:20.148Z,19.17
2017-05-01T04:52:30.126Z,19.19
2017-05-01T04:53:40.406Z,19.2
2017-05-01T04:54:50.945Z,19.2
2017-05-01T04:56:00.916Z,19.27
2017-05-01T04:57:11.191Z,19.16
2017-05-01T04:58:20.855Z,19.19
2017-05-01T04:59:30.828Z,19.19
2017-05-01T05:00:41.376Z,19.19
2017-05-01T05:01:51.345Z,19.15
2017-05-01T05:03:00.992Z,19.16
2017-05-01T05:04:10.970Z,19.15
2017-05-01T05:05:21.280Z,19.15
2017-05-01T05:06:31.504Z,19.15
2017-05-01T05:07:41.789Z,19.12
2017-05-01T05:08:52.085Z,19.2
2017-05-01T05:10:02.375Z,19.15
2017-05-01T05:11:12.663Z,19.22
2017-05-01T05:12:23.194Z,19.19
2017-05-01T05:13:33.170Z,19.19
2017-05-01T05:14:43.454Z,19.2
2017-05-01T05:15:53.442Z,19.16
2017-05-01T05:17:03.723Z,19.16
2017-05-01T05:18:13.950Z,19.12
2017-05-01T05:19:24.279Z,19.17
2017-05-01T05:20:34.568Z,19.2
2017-05-01T05:21:44.544Z,19.16
2017-05-01T05:22:54.826Z,19.15
2017-05-01T05:24:05.359Z,19.2
2017-05-01T05:25:15.327Z,19.17
2017-05-01T05:26:25.303Z,19.19
2017-05-01T05:27:35.581Z,19.19
2017-05-01T05:28:45.866Z,19.12
2017-05-01T05:29:56.147Z,19.12
2017-05-01T05:31:06.436Z,19.17
2017-05-01T05:32:16.954Z,19.22
2017-05-01T05:33:27.239Z,19.2
2017-05-01T05:34:37.221Z,19.19
2017-05-01T05:35:47.753Z,19.16
2017-05-01T05:36:58.037Z,19.16
2017-05-01T05:38:08.322Z,19.17
2017-05-01T05:39:18.638Z,19.19
2017-05-01T05:40:28.921Z,19.2
2017-05-01T05:41:39.140Z,19.16
2017-05-01T05:42:49.420Z,19.16
2017-05-01T05:43:59.400Z,19.26
2017-05-01T05:45:09.371Z,19.17
2017-05-01T05:46:19.035Z,19.16
2017-05-01T05:47:29.561Z,19.15
2017-05-01T05:48:39.541Z,19.15
2017-05-01T05:49:49.828Z,19.17
2017-05-01T05:51:00.114Z,19.2
2017-05-01T05:52:10.397Z,19.16
2017-05-01T05:53:20.920Z,19.22
2017-05-01T05:54:31.207Z,19.19
2017-05-01T05:55:41.174Z,19.19
2017-05-01T05:56:51.143Z,19.17
2017-05-01T05:58:01.418Z,19.15
2017-05-01T05:59:11.962Z,19.19
2017-05-01T06:00:21.941Z,19.15
2017-05-01T06:01:32.231Z,19.16
2017-05-01T06:02:42.206Z,19.17
2017-05-01T06:03:52.495Z,19.16
2017-05-01T06:05:03.023Z,19.16
2017-05-01T06:06:13.315Z,19.15
2017-05-01T06:07:23.606Z,19.2
2017-05-01T06:08:33.889Z,19.16
2017-05-01T06:09:44.199Z,19.19
2017-05-01T06:10:54.410Z,19.19
2017-05-01T06:12:04.383Z,19.19
2017-05-01T06:13:14.669Z,19.2
2017-05-01T06:14:24.957Z,19.23
2017-05-01T06:15:34.936Z,19.19
2017-05-01T06:16:45.465Z,19.16
2017-05-01T06:17:55.440Z,19.19
2017-05-01T06:19:05.417Z,19.19
2017-05-01T06:20:15.395Z,19.15
2017-05-01T06:21:25.362Z,19.19
2017-05-01T06:22:35.899Z,19.19
2017-05-01T06:23:45.874Z,19.19
2017-05-01T06:24:56.166Z,19.2
2017-05-01T06:26:06.136Z,19.19
2017-05-01T06:27:16.112Z,19.22
2017-05-01T06:28:26.670Z,19.19
2017-05-01T06:29:36.643Z,19.22
2017-05-01T06:30:46.620Z,19.16
2017-05-01T06:31:55.970Z,19.2
2017-05-01T06:33:06.254Z,19.17
2017-05-01T06:34:16.478Z,19.2
2017-05-01T06:35:26.768Z,19.15
2017-05-01T06:36:36.732Z,19.22
2017-05-01T06:37:47.014Z,19.2
2017-05-01T06:38:57.306Z,19.15
2017-05-01T06:40:07.838Z,19.19
2017-05-01T06:41:18.121Z,19.16
2017-05-01T06:42:28.410Z,19.19
2017-05-01T06:43:38.072Z,19.19
2017-05-01T06:44:48.357Z,19.15
2017-05-01T06:45:58.268Z,19.22
2017-05-01T06:47:08.557Z,19.23
2017-05-01T06:48:18.864Z,19.26
2017-05-01T06:49:28.842Z,19.15
2017-05-01T06:50:38.810Z,19.16
2017-05-01T06:51:49.348Z,19.22
2017-05-01T06:52:59.328Z,19.2
2017-05-01T06:54:09.328Z,19.22
2017-05-01T06:55:19.609Z,19.26
2017-05-01T06:56:29.875Z,19.26
2017-05-01T06:57:40.404Z,19.23
2017-05-01T06:58:50.695Z,19.26
2017-05-01T07:00:00.984Z,19.22
2017-05-01T07:01:11.273Z,19.26
2017-05-01T07:02:21.603Z,19.26
2017-05-01T07:03:32.147Z,19.3
2017-05-01T07:04:42.435Z,19.27
2017-05-01T07:05:52.422Z,19.2
2017-05-01T07:07:02.716Z,19.2
2017-05-01T07:08:13.002Z,19.26
2017-05-01T07:09:23.597Z,19.24
2017-05-01T07:10:33.876Z,19.34
2017-05-01T07:11:44.181Z,19.22
2017-05-01T07:12:54.471Z,19.3
2017-05-01T07:14:04.783Z,19.3
2017-05-01T07:15:15.020Z,19.3
2017-05-01T07:16:25.004Z,19.3
2017-05-01T07:17:34.670Z,19.29
2017-05-01T07:18:44.664Z,19.3
2017-05-01T07:19:54.960Z,19.27
2017-05-01T07:21:05.187Z,19.32
2017-05-01T07:22:15.482Z,19.24
2017-05-01T07:23:25.779Z,19.32
2017-05-01T07:24:36.066Z,19.26
2017-05-01T07:25:46.350Z,19.35
2017-05-01T07:26:56.887Z,19.26
2017-05-01T07:28:06.559Z,19.23
2017-05-01T07:29:16.859Z,19.35
2017-05-01T07:30:27.142Z,19.37
2017-05-01T07:31:37.457Z,19.35
2017-05-01T07:32:47.989Z,19.35
2017-05-01T07:33:58.435Z,19.34
2017-05-01T07:35:08.727Z,19.35
2017-05-01T07:36:19.013Z,19.32
2017-05-01T07:37:28.668Z,19.3
2017-05-01T07:38:38.584Z,19.41
2017-05-01T07:39:48.875Z,19.35
2017-05-01T07:40:59.177Z,19.35
2017-05-01T07:42:09.465Z,19.32
2017-05-01T07:43:19.750Z,19.37
2017-05-01T07:44:30.295Z,19.35
2017-05-01T07:45:40.581Z,19.37
2017-05-01T07:46:50.875Z,19.35
2017-05-01T07:48:00.856Z,19.37
2017-05-01T07:49:10.852Z,19.37
2017-05-01T07:50:21.378Z,19.42
2017-05-01T07:51:31.358Z,19.44
2017-05-01T07:52:41.663Z,19.41
2017-05-01T07:53:51.651Z,19.38
2017-05-01T07:55:01.641Z,19.42
2017-05-01T07:56:11.863Z,19.44
2017-05-01T07:57:22.142Z,19.42
2017-05-01T07:58:32.119Z,19.42
2017-05-01T07:59:42.409Z,19.47
2017-05-01T08:00:52.705Z,19.42
2017-05-01T08:02:03.254Z,19.47
2017-05-01T08:03:13.220Z,19.38
2017-05-01T08:04:23.209Z,19.47
2017-05-01T08:05:33.489Z,19.44
2017-05-01T08:06:43.788Z,19.47
2017-05-01T08:07:54.013Z,19.49
2017-05-01T08:09:03.997Z,19.41
2017-05-01T08:10:14.306Z,19.47
2017-05-01T08:11:24.597Z,19.52
2017-05-01T08:12:34.576Z,19.42
2017-05-01T08:13:44.817Z,19.49
2017-05-01T08:14:54.857Z,19.42
2017-05-01T08:16:05.153Z,19.41
2017-05-01T08:17:15.438Z,19.55
2017-05-01T08:18:25.742Z,19.49
2017-05-01T08:19:36.282Z,19.45
2017-05-01T08:20:46.578Z,19.53
2017-05-01T08:21:56.560Z,19.6
2017-05-01T08:23:06.861Z,19.48
2017-05-01T08:24:16.833Z,19.52
2017-05-01T08:25:27.430Z,19.53
2017-05-01T08:26:37.421Z,19.52
2017-05-01T08:27:47.721Z,19.53
2017-05-01T08:28:58.023Z,19.55
2017-05-01T08:30:08.333Z,19.56
2017-05-01T08:31:18.572Z,19.53
2017-05-01T08:32:28.567Z,19.53
2017-05-01T08:33:38.554Z,19.52
2017-05-01T08:34:48.843Z,19.53
2017-05-01T08:35:58.822Z,19.6
2017-05-01T08:37:09.063Z,19.6
2017-05-01T08:38:19.369Z,19.56
2017-05-01T08:39:29.684Z,19.52
2017-05-01T08:40:39.671Z,19.6
2017-05-01T08:41:49.973Z,19.56
2017-05-01T08:43:00.515Z,19.56
2017-05-01T08:44:10.811Z,19.63
2017-05-01T08:45:20.494Z,19.6
2017-05-01T08:46:30.795Z,19.56
2017-05-01T08:47:40.781Z,19.57
2017-05-01T08:48:51.322Z,19.56
2017-05-01T08:50:01.617Z,19.59
2017-05-01T08:51:11.608Z,19.6
2017-05-01T08:52:21.910Z,19.62
2017-05-01T08:53:32.235Z,19.56
2017-05-01T08:54:42.801Z,19.56
2017-05-01T08:55:52.771Z,19.56
2017-05-01T08:57:02.751Z,19.63
2017-05-01T08:58:12.727Z,19.66
2017-05-01T08:59:23.021Z,19.63
2017-05-01T09:00:33.563Z,19.7
2017-05-01T09:01:43.860Z,19.62
2017-05-01T09:02:54.262Z,19.63
2017-05-01T09:04:04.565Z,19.7
2017-05-01T09:05:14.864Z,19.71
2017-05-01T09:06:24.779Z,19.7
2017-05-01T09:07:34.814Z,19.7
2017-05-01T09:08:45.142Z,19.67
2017-05-01T09:09:55.446Z,19.7
2017-05-01T09:11:05.759Z,19.67
2017-05-01T09:12:16.302Z,19.74
2017-05-01T09:13:26.005Z,19.72
2017-05-01T09:14:36.291Z,19.71
2017-05-01T09:15:45.982Z,19.82
2017-05-01T09:16:55.975Z,19.72
2017-05-01T09:18:06.540Z,19.71
2017-05-01T09:19:17.103Z,19.74
2017-05-01T09:20:27.087Z,19.77
2017-05-01T09:21:37.385Z,19.72
2017-05-01T09:22:47.689Z,19.71
2017-05-01T09:23:57.964Z,19.7
2017-05-01T09:25:08.295Z,19.72
2017-05-01T09:26:18.603Z,19.82
2017-05-01T09:27:28.904Z,19.81
2017-05-01T09:28:39.204Z,19.85
2017-05-01T09:29:49.792Z,19.82
2017-05-01T09:30:59.795Z,19.77
2017-05-01T09:32:10.124Z,19.78
2017-05-01T09:33:20.154Z,19.71
2017-05-01T09:34:30.485Z,19.79
2017-05-01T09:35:40.725Z,19.81
2017-05-01T09:36:51.036Z,19.82
2017-05-01T09:38:01.069Z,19.87
2017-05-01T09:39:11.408Z,19.77
2017-05-01T09:40:21.729Z,19.77
2017-05-01T09:41:31.977Z,19.84
2017-05-01T09:42:41.697Z,19.85
2017-05-01T09:43:52.003Z,19.85
2017-05-01T09:45:01.379Z,19.87
2017-05-01T09:46:11.704Z,19.85
2017-05-01T09:47:21.950Z,19.81
2017-05-01T09:48:32.256Z,19.81
2017-05-01T09:49:42.608Z,19.75
2017-05-01T09:50:52.938Z,19.81
2017-05-01T09:52:02.939Z,19.74
2017-05-01T09:53:13.513Z,19.84
2017-05-01T09:54:23.816Z,19.77
2017-05-01T09:55:33.174Z,19.78
2017-05-01T09:56:43.495Z,19.77
2017-05-01T09:57:53.831Z,19.81
2017-05-01T09:59:04.405Z,19.84
2017-05-01T10:00:14.394Z,19.82
2017-05-01T10:01:24.711Z,19.82
2017-05-01T10:02:35.010Z,19.84
2017-05-01T10:03:44.704Z,19.84
2017-05-01T10:04:55.269Z,19.84
2017-05-01T10:06:05.270Z,19.89
2017-05-01T10:07:15.252Z,19.87
2017-05-01T10:08:25.258Z,19.92
2017-05-01T10:09:35.597Z,19.92
2017-05-01T10:10:46.157Z,19.85
2017-05-01T10:11:55.859Z,19.82
2017-05-01T10:13:06.187Z,19.9
2017-05-01T10:14:16.496Z,19.84
2017-05-01T10:15:26.798Z,19.89
2017-05-01T10:16:37.358Z,19.9
2017-05-01T10:17:47.361Z,19.89
2017-05-01T10:18:57.370Z,19.9
2017-05-01T10:20:07.699Z,19.89
2017-05-01T10:21:17.408Z,19.89
2017-05-01T10:22:27.969Z,19.92
2017-05-01T10:23:38.273Z,19.97
2017-05-01T10:24:48.587Z,19.94
2017-05-01T10:25:58.912Z,19.85
2017-05-01T10:27:08.936Z,19.89
2017-05-01T10:28:19.519Z,19.96
2017-05-01T10:29:29.846Z,19.96
2017-05-01T10:30:40.170Z,19.96
2017-05-01T10:31:50.501Z,19.89
2017-05-01T10:33:00.821Z,19.97
2017-05-01T10:34:11.412Z,19.94
2017-05-01T10:35:21.409Z,19.9
2017-05-01T10:36:31.730Z,19.97
2017-05-01T10:37:42.082Z,19.97
2017-05-01T10:38:52.083Z,19.85
2017-05-01T10:40:02.357Z,19.92
2017-05-01T10:41:12.355Z,19.96
2017-05-01T10:42:22.695Z,20
2017-05-01T10:43:32.672Z,19.97
2017-05-01T10:44:42.708Z,20.02
2017-05-01T10:45:53.264Z,19.93
2017-05-01T10:47:03.569Z,19.99
2017-05-01T10:48:13.284Z,19.96
2017-05-01T10:49:23.297Z,19.96
2017-05-01T10:50:33.650Z,19.96
2017-05-01T10:51:44.212Z,20
2017-05-01T10:52:54.211Z,20.03
2017-05-01T10:54:04.519Z,19.93
2017-05-01T10:55:14.521Z,19.9
2017-05-01T10:56:24.816Z,20.07
2017-05-01T10:57:35.394Z,20.04
2017-05-01T10:58:45.719Z,20
2017-05-01T10:59:56.044Z,20.07
2017-05-01T11:01:06.096Z,20.04
2017-05-01T11:02:16.075Z,20.03
2017-05-01T11:03:26.643Z,20.04
2017-05-01T11:04:36.954Z,20.08
2017-05-01T11:05:46.965Z,20
2017-05-01T11:06:57.282Z,20.02
2017-05-01T11:08:07.590Z,20.08
2017-05-01T11:09:18.152Z,20.03
2017-05-01T11:10:28.154Z,20.1
2017-05-01T11:11:38.154Z,20.04
2017-05-01T11:12:48.470Z,20.12
2017-05-01T11:13:58.788Z,20.15
2017-05-01T11:15:09.356Z,20.11
2017-05-01T11:16:19.677Z,20.1
2017-05-01T11:17:29.883Z,20.12
2017-05-01T11:18:39.871Z,20.1
2017-05-01T11:19:49.853Z,20.1
2017-05-01T11:21:00.403Z,20.12
2017-05-01T11:22:10.392Z,20.1
2017-05-01T11:23:20.698Z,20.17
2017-05-01T11:24:31.017Z,20.1
2017-05-01T11:25:40.720Z,20.14
2017-05-01T11:26:50.648Z,20.08
2017-05-01T11:28:00.952Z,20.11
2017-05-01T11:29:10.941Z,20.07
2017-05-01T11:30:21.265Z,20.17
2017-05-01T11:31:31.573Z,20.17
2017-05-01T11:32:42.117Z,20.08
2017-05-01T11:33:52.430Z,20.12
2017-05-01T11:35:02.726Z,20.12
2017-05-01T11:36:12.403Z,20.08
2017-05-01T11:37:22.388Z,20.14
2017-05-01T11:38:32.642Z,20.12
2017-05-01T11:39:42.010Z,20.11
2017-05-01T11:40:52.324Z,20.14
2017-05-01T11:42:02.614Z,20.14
2017-05-01T11:43:12.304Z,20.11
2017-05-01T11:44:22.874Z,20.12
2017-05-01T11:45:33.189Z,20.26
2017-05-01T11:46:43.506Z,20.14
2017-05-01T11:47:53.840Z,20.21
2017-05-01T11:49:03.840Z,20.22
2017-05-01T11:50:14.104Z,20.21
2017-05-01T11:51:24.401Z,20.19
2017-05-01T11:52:34.079Z,20.14
2017-05-01T11:53:44.082Z,20.19
2017-05-01T11:54:54.099Z,20.19
2017-05-01T11:56:04.684Z,20.21
2017-05-01T11:57:14.671Z,20.19
2017-05-01T11:58:24.693Z,20.24
2017-05-01T11:59:34.991Z,20.21
2017-05-01T12:00:45.313Z,20.17
2017-05-01T12:01:55.879Z,20.17
2017-05-01T12:03:05.547Z,20.26
2017-05-01T12:04:15.232Z,20.19
2017-05-01T12:05:25.422Z,20.18
2017-05-01T12:06:35.420Z,20.22
2017-05-01T12:07:45.968Z,20.21
2017-05-01T12:08:56.278Z,20.22
2017-05-01T12:10:06.590Z,20.22
2017-05-01T12:11:16.900Z,20.21
2017-05-01T12:12:26.567Z,20.21
2017-05-01T12:13:37.216Z,20.22
2017-05-01T12:14:47.538Z,20.24
2017-05-01T12:15:57.853Z,20.21
2017-05-01T12:17:08.163Z,20.18
2017-05-01T12:18:18.494Z,20.27
2017-05-01T12:19:29.063Z,20.24
2017-05-01T12:20:39.373Z,20.24
2017-05-01T12:21:49.366Z,20.21
2017-05-01T12:22:59.697Z,20.15
2017-05-01T12:24:09.694Z,20.21
2017-05-01T12:25:19.634Z,20.24
2017-05-01T12:26:29.324Z,20.19
2017-05-01T12:27:39.316Z,20.24
2017-05-01T12:28:49.334Z,20.26
2017-05-01T12:29:59.362Z,20.19
2017-05-01T12:31:09.941Z,20.27
2017-05-01T12:32:19.959Z,20.21
2017-05-01T12:33:29.642Z,20.24
2017-05-01T12:34:39.957Z,20.24
2017-05-01T12:35:49.636Z,20.33
2017-05-01T12:37:00.205Z,20.27
2017-05-01T12:38:09.906Z,20.17
2017-05-01T12:39:20.224Z,20.19
2017-05-01T12:40:30.225Z,20.21
2017-05-01T12:41:40.554Z,20.22
2017-05-01T12:42:50.815Z,20.24
2017-05-01T12:44:01.146Z,20.27
2017-05-01T12:45:11.469Z,20.24
2017-05-01T12:46:21.455Z,20.18
2017-05-01T12:47:31.457Z,20.26
2017-05-01T12:48:42.021Z,20.24
2017-05-01T12:49:52.021Z,20.21
2017-05-01T12:51:02.319Z,20.19
2017-05-01T12:52:11.988Z,20.19
2017-05-01T12:53:22.003Z,20.26
2017-05-01T12:54:32.254Z,20.19
2017-05-01T12:55:42.560Z,20.26
2017-05-01T12:56:52.560Z,20.33
2017-05-01T12:58:02.863Z,20.21
2017-05-01T12:59:12.224Z,20.18
2017-05-01T13:00:23.045Z,20.26
2017-05-01T13:01:33.097Z,20.18
2017-05-01T13:02:42.785Z,20.29
2017-05-01T13:03:52.779Z,20.24
2017-05-01T13:05:03.102Z,20.21
2017-05-01T13:06:13.056Z,20.22
2017-05-01T13:07:23.363Z,20.17
2017-05-01T13:08:33.689Z,20.24
2017-05-01T13:09:43.990Z,20.26
2017-05-01T13:10:53.976Z,20.24
2017-05-01T13:12:04.220Z,20.22
2017-05-01T13:13:14.552Z,20.32
2017-05-01T13:14:24.957Z,20.32
2017-05-01T13:15:35.280Z,20.24
2017-05-01T13:16:45.284Z,20.24
2017-05-01T13:17:55.535Z,20.24
2017-05-01T13:19:05.535Z,20.24
2017-05-01T13:20:15.843Z,20.21
2017-05-01T13:21:25.840Z,20.27
2017-05-01T13:22:36.174Z,20.17
2017-05-01T13:23:46.739Z,20.21
2017-05-01T13:24:56.793Z,20.19
2017-05-01T13:26:07.136Z,20.29
2017-05-01T13:27:17.132Z,20.24
2017-05-01T13:28:27.122Z,20.19
2017-05-01T13:29:37.708Z,20.32
2017-05-01T13:30:47.723Z,20.21
2017-05-01T13:31:57.735Z,20.17
2017-05-01T13:33:07.743Z,20.27
2017-05-01T13:34:17.791Z,20.27
2017-05-01T13:35:28.362Z,20.21
2017-05-01T13:36:38.659Z,20.19
2017-05-01T13:37:49.041Z,20.21
2017-05-01T13:38:59.382Z,20.24
2017-05-01T13:40:09.383Z,20.29
2017-05-01T13:41:19.620Z,20.29
2017-05-01T13:42:29.641Z,20.3
2017-05-01T13:43:39.966Z,20.21
2017-05-01T13:44:49.964Z,20.21
2017-05-01T13:45:59.989Z,20.21
2017-05-01T13:47:10.234Z,20.21
2017-05-01T13:48:20.245Z,20.21
2017-05-01T13:49:30.254Z,20.27
2017-05-01T13:50:40.258Z,20.24
2017-05-01T13:51:50.560Z,20.21
2017-05-01T13:53:00.855Z,20.3
2017-05-01T13:54:11.169Z,20.17
2017-05-01T13:55:21.169Z,20.21
2017-05-01T13:56:31.198Z,20.14
2017-05-01T13:57:40.875Z,20.24
2017-05-01T13:58:51.459Z,20.33
2017-05-01T14:00:01.807Z,20.17
2017-05-01T14:01:12.151Z,20.19
2017-05-01T14:02:22.181Z,20.27
2017-05-01T14:03:32.206Z,20.22
2017-05-01T14:04:42.785Z,20.29
2017-05-01T14:05:52.818Z,20.34
2017-05-01T14:07:02.844Z,20.26
2017-05-01T14:08:12.862Z,20.29
2017-05-01T14:09:23.226Z,20.32
2017-05-01T14:10:33.482Z,20.26
2017-05-01T14:11:43.826Z,20.34
2017-05-01T14:12:53.517Z,20.29
2017-05-01T14:14:03.873Z,20.3
2017-05-01T14:15:13.888Z,20.36
2017-05-01T14:16:24.471Z,20.32
2017-05-01T14:17:34.833Z,20.21
2017-05-01T14:18:45.177Z,20.34
2017-05-01T14:19:55.533Z,20.32
2017-05-01T14:21:05.874Z,20.26
2017-05-01T14:22:16.471Z,20.21
2017-05-01T14:23:26.485Z,20.29
2017-05-01T14:24:35.880Z,20.36
2017-05-01T14:25:45.900Z,20.33
2017-05-01T14:26:55.643Z,20.33
2017-05-01T14:28:05.958Z,20.26
2017-05-01T14:29:15.370Z,20.29
2017-05-01T14:30:25.437Z,20.29
2017-05-01T14:31:35.443Z,20.32
2017-05-01T14:32:45.764Z,20.19
2017-05-01T14:33:56.413Z,20.3
2017-05-01T14:35:06.741Z,20.19
2017-05-01T14:36:17.064Z,20.24
2017-05-01T14:37:27.110Z,20.21
2017-05-01T14:38:37.413Z,20.36
2017-05-01T14:39:47.711Z,20.34
2017-05-01T14:40:58.029Z,20.27
2017-05-01T14:42:08.409Z,20.26
2017-05-01T14:43:18.107Z,20.21
2017-05-01T14:44:28.440Z,20.32
2017-05-01T14:45:38.701Z,20.37
2017-05-01T14:46:48.716Z,20.32
2017-05-01T14:47:58.768Z,20.19
2017-05-01T14:49:08.123Z,20.18
2017-05-01T14:50:17.849Z,20.33
2017-05-01T14:51:27.797Z,20.29
2017-05-01T14:52:38.150Z,20.36
2017-05-01T14:53:48.190Z,20.36
2017-05-01T14:54:58.541Z,20.33
2017-05-01T14:56:08.533Z,20.32
2017-05-01T14:57:18.818Z,20.33
2017-05-01T14:58:28.841Z,20.29
2017-05-01T14:59:38.838Z,20.33
2017-05-01T15:00:49.208Z,20.34
2017-05-01T15:01:59.572Z,20.33
2017-05-01T15:03:10.164Z,20.32
2017-05-01T15:04:20.510Z,20.32
2017-05-01T15:05:30.872Z,20.3
2017-05-01T15:06:40.900Z,20.36